Time;durP1;ratioP1;P1;durP2;ratioP2;P2;SDS_P1;SDS_P2;PMS_P1;PMS_P2;Temp;Humidity;BMP_temperature;BMP_pressure;BME280_temperature;BME280_humidity;BME280_pressure;Samples;Min_cycle;Max_cycle;Signal;HPM_P1;HPM_P2
2022/05/29 00:02:18;;;;;;;37.53;5.30;;;;;;;;;;4994404;28;20089;-72
2022/05/29 00:04:44;;;;;;;28.70;5.93;;;;;;;;;;4976871;28;20052;-71
2022/05/29 00:07:11;;;;;;;30.38;6.53;;;;;;;;;;4977301;28;20019;-71
2022/05/29 00:09:41;;;;;;;36.30;6.63;;;;;;;;;;4993449;28;20443;-71
2022/05/29 00:12:08;;;;;;;32.75;5.72;;;;;;;;;;4993076;28;20026;-73
2022/05/29 00:14:35;;;;;;;34.10;6.65;;;;;;;;;;4993026;28;20361;-72
2022/05/29 00:17:01;;;;;;;28.60;6.05;;;;;;;;;;4993461;28;20026;-72
2022/05/29 00:19:27;;;;;;;35.10;6.05;;;;;;;;;;4993541;28;20483;-72
2022/05/29 00:21:54;;;;;;;30.58;5.97;;;;;;;;;;4996531;28;20424;-73
2022/05/29 00:24:20;;;;;;;37.17;6.35;;;;;;;;;;4996582;28;20046;-74
2022/05/29 00:26:46;;;;;;;41.25;7.22;;;;;;;;;;4996394;28;20037;-72
2022/05/29 00:29:12;;;;;;;30.20;6.07;;;;;;;;;;4996500;28;20026;-72
2022/05/29 00:31:38;;;;;;;30.75;6.07;;;;;;;;;;4996235;28;20399;-72
2022/05/29 00:34:04;;;;;;;33.13;6.72;;;;;;;;;;4996230;28;20029;-72
2022/05/29 00:36:36;;;;;;;27.73;6.55;;;;;;;;;;4996315;28;20462;-74
2022/05/29 00:39:02;;;;;;;29.48;5.68;;;;;;;;;;4996470;28;20377;-72
2022/05/29 00:41:29;;;;;;;41.70;7.07;;;;;;;;;;4996523;28;20022;-71
2022/05/29 00:44:16;;;;;;;32.72;5.85;;;;;;;;;;4996241;28;20042;-70
2022/05/29 00:46:45;;;;;;;33.15;6.75;;;;;;;;;;4995887;28;20021;-71
2022/05/29 00:49:12;;;;;;;33.00;6.75;;;;;;;;;;4995863;28;20026;-73
2022/05/29 00:51:40;;;;;;;32.92;6.38;;;;;;;;;;4996014;28;20106;-72
2022/05/29 00:54:06;;;;;;;40.10;6.32;;;;;;;;;;4995911;28;20034;-73
2022/05/29 00:56:34;;;;;;;40.20;6.18;;;;;;;;;;4996529;28;20199;-73
2022/05/29 00:59:00;;;;;;;38.05;6.55;;;;;;;;;;4995821;28;20042;-73
2022/05/29 01:01:27;;;;;;;37.30;6.47;;;;;;;;;;4996102;28;20126;-71
2022/05/29 01:03:56;;;;;;;42.72;6.57;;;;;;;;;;4995917;28;20027;-73
2022/05/29 01:06:22;;;;;;;33.00;6.57;;;;;;;;;;4995075;28;20373;-71
2022/05/29 01:08:48;;;;;;;37.30;5.70;;;;;;;;;;4995687;28;20031;-71
2022/05/29 01:11:20;;;;;;;37.35;6.40;;;;;;;;;;4995583;28;20317;-71
2022/05/29 01:13:54;;;;;;;38.03;6.63;;;;;;;;;;4978182;28;20113;-70
2022/05/29 01:16:36;;;;;;;38.47;6.10;;;;;;;;;;4997686;28;20386;-73
2022/05/29 01:19:10;;;;;;;45.92;7.43;;;;;;;;;;4995565;28;20084;-71
2022/05/29 01:21:47;;;;;;;43.80;7.25;;;;;;;;;;4995317;28;20026;-73
2022/05/29 01:24:13;;;;;;;33.30;6.15;;;;;;;;;;4997225;28;20026;-74
2022/05/29 01:27:03;;;;;;;35.80;5.82;;;;;;;;;;4998493;28;20023;-71
2022/05/29 01:29:33;;;;;;;36.78;6.22;;;;;;;;;;4999080;28;20468;-71
2022/05/29 01:32:13;;;;;;;35.58;5.53;;;;;;;;;;4977164;28;20037;-73
2022/05/29 01:34:46;;;;;;;46.15;7.65;;;;;;;;;;4995044;28;20395;-71
2022/05/29 01:37:13;;;;;;;48.80;6.97;;;;;;;;;;4995033;28;20049;-71
2022/05/29 01:39:50;;;;;;;34.40;5.78;;;;;;;;;;4995114;28;20502;-70
2022/05/29 01:42:24;;;;;;;42.25;6.82;;;;;;;;;;4995092;28;20050;-72
2022/05/29 01:44:54;;;;;;;45.40;6.68;;;;;;;;;;4994981;28;20125;-73
2022/05/29 01:47:21;;;;;;;41.70;7.22;;;;;;;;;;4994973;28;20036;-72
2022/05/29 01:49:51;;;;;;;36.92;6.03;;;;;;;;;;4994902;28;20027;-72
2022/05/29 01:52:22;;;;;;;36.25;6.40;;;;;;;;;;4976278;28;20026;-72
2022/05/29 01:54:51;;;;;;;35.80;5.90;;;;;;;;;;4994764;28;20099;-73
2022/05/29 01:57:22;;;;;;;40.42;5.97;;;;;;;;;;4994406;28;20037;-72
2022/05/29 01:59:52;;;;;;;40.65;6.63;;;;;;;;;;4994762;28;20027;-73
2022/05/29 02:02:21;;;;;;;47.85;6.75;;;;;;;;;;4994697;28;20076;-73
2022/05/29 02:04:47;;;;;;;47.08;6.13;;;;;;;;;;4994988;28;20555;-72
2022/05/29 02:10:02;;;;;;;45.50;6.55;;;;;;;;;;4994233;28;20089;-72
2022/05/29 02:12:30;;;;;;;39.13;7.05;;;;;;;;;;4994286;28;20047;-73
2022/05/29 02:15:00;;;;;;;37.10;6.20;;;;;;;;;;4994277;28;20035;-72
2022/05/29 02:17:28;;;;;;;32.63;5.68;;;;;;;;;;4994033;28;20026;-72
2022/05/29 02:19:58;;;;;;;43.60;5.85;;;;;;;;;;4994807;28;20027;-71
2022/05/29 02:22:27;;;;;;;44.40;6.78;;;;;;;;;;4994238;28;20105;-71
2022/05/29 02:25:05;;;;;;;41.00;5.75;;;;;;;;;;4994409;28;20150;-70
2022/05/29 02:27:35;;;;;;;28.15;5.18;;;;;;;;;;4993738;28;20037;-71
2022/05/29 02:30:02;;;;;;;40.03;5.93;;;;;;;;;;4994328;28;20034;-71
2022/05/29 02:32:43;;;;;;;45.00;6.10;;;;;;;;;;4994063;28;20037;-72
2022/05/29 02:35:12;;;;;;;38.28;6.70;;;;;;;;;;4996252;28;20042;-72
2022/05/29 02:37:57;;;;;;;42.10;5.82;;;;;;;;;;4993777;28;20121;-72
2022/05/29 02:40:31;;;;;;;33.72;6.07;;;;;;;;;;4994524;28;20030;-72
2022/05/29 02:43:20;;;;;;;39.00;5.07;;;;;;;;;;4994315;28;20528;-73
2022/05/29 02:45:50;;;;;;;32.92;5.18;;;;;;;;;;4993452;28;20471;-72
2022/05/29 02:48:21;;;;;;;35.03;5.30;;;;;;;;;;4994213;28;20030;-72
2022/05/29 02:50:47;;;;;;;42.13;6.20;;;;;;;;;;4994019;28;20026;-72
2022/05/29 02:53:14;;;;;;;38.22;5.80;;;;;;;;;;4993971;28;20110;-73
2022/05/29 02:55:41;;;;;;;43.05;9.80;;;;;;;;;;4975729;28;20061;-72
2022/05/29 02:58:09;;;;;;;38.60;7.07;;;;;;;;;;4993741;28;20054;-72
2022/05/29 03:01:02;;;;;;;41.22;6.72;;;;;;;;;;4993696;28;20077;-72
2022/05/29 03:03:28;;;;;;;31.98;5.22;;;;;;;;;;4989773;28;20034;-74
2022/05/29 03:06:05;;;;;;;33.10;5.03;;;;;;;;;;4993784;28;20028;-73
2022/05/29 03:08:42;;;;;;;38.00;6.00;;;;;;;;;;4975812;28;20034;-72
2022/05/29 03:11:10;;;;;;;38.08;6.40;;;;;;;;;;4993042;28;20038;-72
2022/05/29 03:13:36;;;;;;;43.05;6.75;;;;;;;;;;4975732;28;20395;-73
2022/05/29 03:16:26;;;;;;;35.28;6.07;;;;;;;;;;4992596;28;20109;-73
2022/05/29 03:19:12;;;;;;;33.50;5.72;;;;;;;;;;4975549;28;20030;-73
2022/05/29 03:21:47;;;;;;;40.80;5.80;;;;;;;;;;4993221;28;20057;-72
2022/05/29 03:24:19;;;;;;;45.45;6.00;;;;;;;;;;4993290;28;20026;-74
2022/05/29 03:26:49;;;;;;;37.58;6.18;;;;;;;;;;4992837;28;20026;-73
2022/05/29 03:29:19;;;;;;;46.13;6.10;;;;;;;;;;4993038;28;20510;-73
2022/05/29 03:31:46;;;;;;;38.80;6.40;;;;;;;;;;4993154;28;20399;-73
2022/05/29 03:34:13;;;;;;;36.75;5.68;;;;;;;;;;4992990;28;20462;-73
2022/05/29 03:36:47;;;;;;;39.22;6.15;;;;;;;;;;4993087;28;20085;-72
2022/05/29 03:39:13;;;;;;;53.80;7.15;;;;;;;;;;4993053;28;20372;-73
2022/05/29 03:41:43;;;;;;;40.03;5.63;;;;;;;;;;4993222;28;20077;-72
2022/05/29 03:44:09;;;;;;;46.80;6.32;;;;;;;;;;4993160;28;20046;-73
2022/05/29 03:46:35;;;;;;;41.22;5.72;;;;;;;;;;4992904;28;20030;-72
2022/05/29 03:49:01;;;;;;;38.53;5.82;;;;;;;;;;4993076;28;20026;-72
2022/05/29 03:51:27;;;;;;;39.58;6.22;;;;;;;;;;4993499;28;20081;-72
2022/05/29 03:53:52;;;;;;;36.72;5.53;;;;;;;;;;4992838;28;20038;-71
2022/05/29 03:56:18;;;;;;;34.70;5.15;;;;;;;;;;4995802;28;20026;-72
2022/05/29 03:58:46;;;;;;;44.30;6.57;;;;;;;;;;5000272;28;20225;-73
2022/05/29 04:01:14;;;;;;;38.08;6.10;;;;;;;;;;4998255;28;20384;-73
2022/05/29 04:03:40;;;;;;;39.88;7.05;;;;;;;;;;4986887;28;20042;-72
2022/05/29 04:06:06;;;;;;;32.13;5.85;;;;;;;;;;4997564;28;20033;-72
2022/05/29 04:14:02;;;;;;;35.38;6.15;;;;;;;;;;4996840;28;20406;-72
2022/05/29 04:16:28;;;;;;;33.15;6.00;;;;;;;;;;4996746;28;20543;-73
2022/05/29 04:18:55;;;;;;;38.20;6.45;;;;;;;;;;4979329;28;20082;-72
2022/05/29 04:21:21;;;;;;;45.00;5.70;;;;;;;;;;4996900;28;20078;-73
2022/05/29 04:23:47;;;;;;;35.05;5.95;;;;;;;;;;4996788;28;20026;-72
2022/05/29 04:26:14;;;;;;;47.72;7.50;;;;;;;;;;4996545;28;20057;-72
2022/05/29 04:28:40;;;;;;;32.03;5.72;;;;;;;;;;4996641;28;20092;-72
2022/05/29 04:31:06;;;;;;;35.17;6.10;;;;;;;;;;4996618;28;20105;-73
2022/05/29 04:33:32;;;;;;;29.85;5.65;;;;;;;;;;4999712;28;20113;-71
2022/05/29 04:35:58;;;;;;;41.72;5.80;;;;;;;;;;4996127;28;20077;-73
2022/05/29 04:38:24;;;;;;;46.95;6.03;;;;;;;;;;4996247;28;20034;-73
2022/05/29 04:40:51;;;;;;;37.00;5.60;;;;;;;;;;4996546;28;20026;-72
2022/05/29 04:43:17;;;;;;;38.80;5.43;;;;;;;;;;4996348;28;20030;-72
2022/05/29 04:45:44;;;;;;;35.35;7.03;;;;;;;;;;4996049;28;20034;-72
2022/05/29 04:48:11;;;;;;;39.20;6.63;;;;;;;;;;4996578;28;20030;-72
2022/05/29 04:50:37;;;;;;;28.73;5.15;;;;;;;;;;4978701;28;20027;-72
2022/05/29 04:53:03;;;;;;;35.25;5.55;;;;;;;;;;4996522;28;20027;-73
2022/05/29 04:55:29;;;;;;;39.33;6.53;;;;;;;;;;4995933;28;20026;-72
2022/05/29 04:57:55;;;;;;;49.67;6.40;;;;;;;;;;4996160;28;20037;-73
2022/05/29 05:00:21;;;;;;;36.13;6.38;;;;;;;;;;4996399;28;20029;-75
2022/05/29 05:02:47;;;;;;;33.00;5.75;;;;;;;;;;4998792;28;20476;-75
2022/05/29 05:05:14;;;;;;;42.40;6.18;;;;;;;;;;4997549;28;20178;-75
2022/05/29 05:07:40;;;;;;;44.25;5.97;;;;;;;;;;4995807;28;20387;-77
2022/05/29 05:10:10;;;;;;;40.22;6.68;;;;;;;;;;4997616;28;20105;-76
2022/05/29 05:12:36;;;;;;;40.00;6.30;;;;;;;;;;4997026;28;20112;-76
2022/05/29 05:15:02;;;;;;;44.45;7.15;;;;;;;;;;4997319;28;20068;-76
2022/05/29 05:17:28;;;;;;;38.13;6.55;;;;;;;;;;5001288;28;20041;-77
2022/05/29 05:19:53;;;;;;;34.38;6.50;;;;;;;;;;4995800;28;20089;-74
2022/05/29 05:22:19;;;;;;;43.03;6.35;;;;;;;;;;4994588;28;20052;-72
2022/05/29 05:24:45;;;;;;;40.67;5.60;;;;;;;;;;4994247;28;20018;-73
2022/05/29 05:27:12;;;;;;;36.75;6.07;;;;;;;;;;4994700;28;20030;-73
2022/05/29 05:29:38;;;;;;;38.13;6.30;;;;;;;;;;4994979;28;20030;-73
2022/05/29 05:32:05;;;;;;;38.53;6.00;;;;;;;;;;4977986;28;20464;-73
2022/05/29 05:34:31;;;;;;;30.20;6.20;;;;;;;;;;4995561;28;20112;-72
2022/05/29 05:36:57;;;;;;;41.88;6.50;;;;;;;;;;4995138;28;20027;-73
2022/05/29 05:39:23;;;;;;;42.60;6.40;;;;;;;;;;4996412;28;20081;-73
2022/05/29 05:41:49;;;;;;;34.85;5.32;;;;;;;;;;4997096;28;20023;-73
2022/05/29 05:44:15;;;;;;;25.45;5.05;;;;;;;;;;4995470;28;20099;-74
2022/05/29 05:46:45;;;;;;;32.38;5.13;;;;;;;;;;4994429;28;20027;-75
2022/05/29 05:49:12;;;;;;;29.77;6.07;;;;;;;;;;4995305;28;20084;-72
2022/05/29 05:51:38;;;;;;;25.77;4.82;;;;;;;;;;4995044;28;20057;-71
2022/05/29 05:54:04;;;;;;;22.80;4.10;;;;;;;;;;4996096;28;20022;-72
2022/05/29 05:56:30;;;;;;;25.55;4.18;;;;;;;;;;4998229;28;20023;-72
2022/05/29 05:58:56;;;;;;;32.53;4.90;;;;;;;;;;4996097;28;20030;-72
2022/05/29 06:01:22;;;;;;;18.27;4.05;;;;;;;;;;4994805;28;20026;-72
2022/05/29 06:03:48;;;;;;;20.83;4.47;;;;;;;;;;4994855;28;20030;-71
2022/05/29 06:06:14;;;;;;;24.67;4.78;;;;;;;;;;4995570;28;20029;-71
2022/05/29 06:08:40;;;;;;;19.52;3.88;;;;;;;;;;4997638;28;20210;-75
2022/05/29 06:11:06;;;;;;;33.33;5.32;;;;;;;;;;5006879;28;20015;-75
2022/05/29 06:13:32;;;;;;;26.88;4.43;;;;;;;;;;5019175;28;20042;-77
2022/05/29 06:16:01;;;;;;;27.67;4.18;;;;;;;;;;5017737;28;20213;-71
2022/05/29 06:18:27;;;;;;;21.13;3.50;;;;;;;;;;5013495;28;20617;-75
2022/05/29 06:20:57;;;;;;;18.90;3.25;;;;;;;;;;5016679;28;20038;-72
2022/05/29 06:23:23;;;;;;;16.98;3.53;;;;;;;;;;5014575;28;20084;-73
2022/05/29 06:25:49;;;;;;;12.13;2.85;;;;;;;;;;5014290;28;20022;-72
2022/05/29 06:28:15;;;;;;;14.55;2.75;;;;;;;;;;5013965;28;20026;-74
2022/05/29 06:30:41;;;;;;;18.55;3.30;;;;;;;;;;5013550;28;20028;-74
2022/05/29 06:33:07;;;;;;;15.82;2.78;;;;;;;;;;5011926;28;20093;-73
2022/05/29 06:35:33;;;;;;;15.32;2.75;;;;;;;;;;4994436;28;20511;-73
2022/05/29 06:37:59;;;;;;;10.80;3.45;;;;;;;;;;4976815;28;20524;-73
2022/05/29 06:40:25;;;;;;;20.55;3.17;;;;;;;;;;4978080;28;20054;-73
2022/05/29 06:42:51;;;;;;;15.38;3.10;;;;;;;;;;4997025;28;20026;-73
2022/05/29 06:45:17;;;;;;;18.33;3.55;;;;;;;;;;4994581;28;20033;-72
2022/05/29 06:47:43;;;;;;;18.90;3.38;;;;;;;;;;4994255;28;20034;-72
2022/05/29 06:50:09;;;;;;;22.50;4.10;;;;;;;;;;4995126;28;20547;-79
2022/05/29 06:52:36;;;;;;;22.45;3.72;;;;;;;;;;4976824;28;20121;-73
2022/05/29 06:55:03;;;;;;;20.63;4.72;;;;;;;;;;4997624;28;20040;-71
2022/05/29 06:57:41;;;;;;;23.40;4.10;;;;;;;;;;4994604;28;20034;-72
2022/05/29 07:08:03;;;;;;;26.83;4.50;;;;;;;;;;4996845;28;20034;-71
2022/05/29 07:10:31;;;;;;;22.45;3.95;;;;;;;;;;4996707;28;20030;-72
2022/05/29 07:12:57;;;;;;;29.83;4.95;;;;;;;;;;4993974;28;20061;-71
2022/05/29 07:15:23;;;;;;;28.08;4.97;;;;;;;;;;4993070;28;20023;-71
2022/05/29 07:17:49;;;;;;;32.70;5.20;;;;;;;;;;4993522;28;20030;-71
2022/05/29 07:20:16;;;;;;;24.33;5.20;;;;;;;;;;4997097;28;20026;-72
2022/05/29 07:22:43;;;;;;;48.25;9.35;;;;;;;;;;4994799;28;20046;-72
2022/05/29 07:25:10;;;;;;;31.48;5.72;;;;;;;;;;4994291;28;20153;-72
2022/05/29 07:27:36;;;;;;;21.88;5.00;;;;;;;;;;4992876;28;20507;-70
2022/05/29 07:30:02;;;;;;;29.65;5.38;;;;;;;;;;4992480;28;20109;-73
2022/05/29 07:32:30;;;;;;;33.35;4.97;;;;;;;;;;4975926;28;20025;-72
2022/05/29 07:34:56;;;;;;;28.15;5.18;;;;;;;;;;4993168;28;20037;-72
2022/05/29 07:37:22;;;;;;;26.00;5.47;;;;;;;;;;4992977;28;20105;-72
2022/05/29 07:39:49;;;;;;;33.75;5.78;;;;;;;;;;4992985;28;20081;-72
2022/05/29 07:45:01;;;;;;;28.00;4.85;;;;;;;;;;4994664;28;20038;-72
2022/05/29 07:47:27;;;;;;;32.72;5.45;;;;;;;;;;4993246;28;20030;-72
2022/05/29 07:49:54;;;;;;;23.50;4.50;;;;;;;;;;4993495;28;20022;-72
2022/05/29 07:52:20;;;;;;;28.15;4.72;;;;;;;;;;4993272;28;20061;-72
2022/05/29 07:54:46;;;;;;;32.70;5.05;;;;;;;;;;4993571;28;20037;-72
2022/05/29 07:57:12;;;;;;;30.02;4.90;;;;;;;;;;4993317;28;20030;-73
2022/05/29 07:59:38;;;;;;;35.25;5.53;;;;;;;;;;4993284;28;20042;-74
2022/05/29 08:02:04;;;;;;;38.90;5.95;;;;;;;;;;4993962;28;20383;-71
2022/05/29 08:04:30;;;;;;;30.08;5.03;;;;;;;;;;4995328;28;20030;-73
2022/05/29 08:06:56;;;;;;;41.45;5.60;;;;;;;;;;4992721;28;20066;-73
2022/05/29 08:09:23;;;;;;;30.65;5.40;;;;;;;;;;4993148;28;20110;-73
2022/05/29 08:11:49;;;;;;;33.85;5.22;;;;;;;;;;4993137;28;20506;-73
2022/05/29 08:14:15;;;;;;;29.75;5.68;;;;;;;;;;4993126;28;20058;-72
2022/05/29 08:16:41;;;;;;;25.02;4.53;;;;;;;;;;4993131;28;20098;-72
2022/05/29 08:19:07;;;;;;;25.42;4.90;;;;;;;;;;4993024;28;20023;-72
2022/05/29 08:21:33;;;;;;;27.88;4.85;;;;;;;;;;5001976;28;20030;-73
2022/05/29 08:32:12;;;;;;;26.00;4.75;;;;;;;;;;4992928;28;20045;-73
2022/05/29 08:34:39;;;;;;;25.50;4.88;;;;;;;;;;4994006;28;20415;-72
2022/05/29 08:37:05;;;;;;;26.52;4.72;;;;;;;;;;4993520;28;20084;-73
2022/05/29 08:39:32;;;;;;;27.00;4.85;;;;;;;;;;4995211;28;20504;-77
2022/05/29 08:41:59;;;;;;;22.38;5.18;;;;;;;;;;4996479;28;20025;-75
2022/05/29 08:44:33;;;;;;;26.85;5.57;;;;;;;;;;5000165;28;20026;-75
2022/05/29 08:47:04;;;;;;;36.30;5.20;;;;;;;;;;4978370;28;20030;-74
2022/05/29 08:49:33;;;;;;;32.97;5.10;;;;;;;;;;4996000;28;20019;-75
2022/05/29 08:52:11;;;;;;;28.88;4.90;;;;;;;;;;4979419;28;20034;-74
2022/05/29 08:54:51;;;;;;;28.27;4.63;;;;;;;;;;4997971;28;20030;-75
2022/05/29 08:57:23;;;;;;;25.88;4.43;;;;;;;;;;4996277;28;20109;-75
2022/05/29 08:59:56;;;;;;;24.10;4.57;;;;;;;;;;4997303;28;20054;-75
2022/05/29 09:02:33;;;;;;;27.42;4.80;;;;;;;;;;5004387;28;20030;-75
2022/05/29 09:05:10;;;;;;;19.85;4.10;;;;;;;;;;4995504;28;20113;-74
2022/05/29 09:07:38;;;;;;;21.08;4.10;;;;;;;;;;4995652;28;20468;-76
2022/05/29 09:10:27;;;;;;;29.27;5.00;;;;;;;;;;4996622;28;20033;-76
2022/05/29 09:12:54;;;;;;;29.52;4.47;;;;;;;;;;4972146;28;20084;-76
2022/05/29 09:15:27;;;;;;;26.30;4.88;;;;;;;;;;5014555;28;20364;-75
2022/05/29 09:17:54;;;;;;;21.23;4.00;;;;;;;;;;5015522;28;20022;-74
2022/05/29 09:20:31;;;;;;;23.73;4.15;;;;;;;;;;5015330;28;20489;-72
2022/05/29 09:22:58;;;;;;;24.88;5.00;;;;;;;;;;5014851;28;20050;-73
2022/05/29 09:25:32;;;;;;;20.15;4.38;;;;;;;;;;5019584;28;20105;-72
2022/05/29 09:28:00;;;;;;;20.07;4.70;;;;;;;;;;5000116;28;20030;-72
2022/05/29 09:30:26;;;;;;;21.85;4.80;;;;;;;;;;5021921;28;20033;-72
2022/05/29 09:32:53;;;;;;;21.30;4.32;;;;;;;;;;5032712;28;20086;-71
2022/05/29 09:35:42;;;;;;;20.27;4.05;;;;;;;;;;5033248;28;20056;-72
2022/05/29 09:38:26;;;;;;;24.65;3.97;;;;;;;;;;5014951;28;20038;-74
2022/05/29 09:41:02;;;;;;;17.17;4.20;;;;;;;;;;5020911;28;20026;-76
2022/05/29 09:43:29;;;;;;;25.02;4.40;;;;;;;;;;5022169;28;20053;-77
2022/05/29 09:45:55;;;;;;;23.83;4.07;;;;;;;;;;5020185;28;20042;-77
2022/05/29 09:51:09;;;;;;;23.27;4.35;;;;;;;;;;5015132;28;20036;-74
2022/05/29 09:53:42;;;;;;;33.08;4.47;;;;;;;;;;5013961;28;20088;-77
2022/05/29 09:56:09;;;;;;;25.30;4.47;;;;;;;;;;5015067;28;20034;-74
2022/05/29 09:58:46;;;;;;;20.23;3.65;;;;;;;;;;5015509;28;20034;-76
2022/05/29 10:01:13;;;;;;;28.17;5.10;;;;;;;;;;4997484;28;20156;-76
2022/05/29 10:03:51;;;;;;;24.05;4.82;;;;;;;;;;5016732;28;20026;-74
2022/05/29 10:06:23;;;;;;;29.05;4.72;;;;;;;;;;4999990;28;20026;-72
2022/05/29 10:08:51;;;;;;;15.75;3.58;;;;;;;;;;5014586;28;20387;-72
2022/05/29 10:11:22;;;;;;;28.08;4.15;;;;;;;;;;5014369;28;20534;-74
2022/05/29 10:13:49;;;;;;;21.85;4.05;;;;;;;;;;4996568;28;20030;-72
2022/05/29 10:16:31;;;;;;;22.98;4.03;;;;;;;;;;5013948;28;20034;-72
2022/05/29 10:18:57;;;;;;;22.65;3.60;;;;;;;;;;5014218;28;20030;-74
2022/05/29 10:21:28;;;;;;;29.65;4.15;;;;;;;;;;5014441;28;20026;-73
2022/05/29 10:23:58;;;;;;;16.55;3.08;;;;;;;;;;5015024;28;20036;-75
2022/05/29 10:26:32;;;;;;;16.83;3.25;;;;;;;;;;5013758;28;20033;-73
2022/05/29 10:28:58;;;;;;;21.80;4.10;;;;;;;;;;5014883;28;20368;-73
2022/05/29 10:31:34;;;;;;;19.65;3.92;;;;;;;;;;5013597;28;20439;-74
2022/05/29 10:34:06;;;;;;;16.77;3.92;;;;;;;;;;4995795;28;20029;-75
2022/05/29 10:36:32;;;;;;;29.75;4.88;;;;;;;;;;5000296;28;20026;-73
2022/05/29 10:39:07;;;;;;;22.95;4.90;;;;;;;;;;5017750;28;20514;-71
2022/05/29 10:41:36;;;;;;;25.75;4.78;;;;;;;;;;5017194;28;20472;-72
2022/05/29 10:44:02;;;;;;;18.23;3.92;;;;;;;;;;5014634;28;20022;-73
2022/05/29 10:46:40;;;;;;;21.02;4.20;;;;;;;;;;5013569;28;20105;-72
2022/05/29 10:49:28;;;;;;;21.17;3.97;;;;;;;;;;5013655;28;20510;-76
2022/05/29 10:52:12;;;;;;;20.42;3.72;;;;;;;;;;5013698;28;20053;-73
2022/05/29 10:54:57;;;;;;;22.85;3.40;;;;;;;;;;5014210;28;20034;-72
2022/05/29 10:57:41;;;;;;;17.17;3.10;;;;;;;;;;5013949;28;20082;-72
2022/05/29 11:00:26;;;;;;;22.67;3.70;;;;;;;;;;5014895;28;20034;-74
2022/05/29 11:03:21;;;;;;;20.60;3.80;;;;;;;;;;5013764;28;20095;-72
2022/05/29 11:05:50;;;;;;;23.33;3.80;;;;;;;;;;5012071;28;20025;-73
2022/05/29 11:08:33;;;;;;;24.95;4.03;;;;;;;;;;5013546;28;20036;-72
2022/05/29 11:11:04;;;;;;;20.98;3.60;;;;;;;;;;5014702;28;20064;-73
2022/05/29 11:13:45;;;;;;;18.65;4.05;;;;;;;;;;5018188;28;20033;-74
2022/05/29 11:16:36;;;;;;;16.50;3.60;;;;;;;;;;5014741;28;20022;-72
2022/05/29 11:19:21;;;;;;;18.95;3.78;;;;;;;;;;5013185;28;20037;-74
2022/05/29 11:22:11;;;;;;;28.15;4.32;;;;;;;;;;5013306;28;20018;-74
2022/05/29 11:24:52;;;;;;;25.83;3.80;;;;;;;;;;5013122;28;20064;-74
2022/05/29 11:27:27;;;;;;;19.30;3.55;;;;;;;;;;5014047;28;20033;-74
2022/05/29 11:30:07;;;;;;;24.73;3.78;;;;;;;;;;5013747;28;20514;-72
2022/05/29 11:32:45;;;;;;;20.48;3.70;;;;;;;;;;5016501;28;20029;-73
2022/05/29 11:35:20;;;;;;;20.13;3.08;;;;;;;;;;5013465;28;20093;-74
2022/05/29 11:37:56;;;;;;;25.10;7.72;;;;;;;;;;5013955;28;20037;-73
2022/05/29 11:40:34;;;;;;;23.55;3.75;;;;;;;;;;5014279;28;20028;-72
2022/05/29 11:43:03;;;;;;;26.20;3.60;;;;;;;;;;5015987;28;20101;-73
2022/05/29 11:51:07;;;;;;;26.63;3.60;;;;;;;;;;5013371;28;20080;-72
2022/05/29 11:51:08;;;;;;;;;;;;;;;;;;5013801;28;20040;-73
2022/05/29 11:53:49;;;;;;;22.65;3.95;;;;;;;;;;5016963;28;19909;-73
2022/05/29 11:56:20;;;;;;;13.57;2.90;;;;;;;;;;5012899;28;20032;-72
2022/05/29 11:58:48;;;;;;;21.92;3.58;;;;;;;;;;5012780;28;20057;-73
2022/05/29 12:01:15;;;;;;;23.13;3.83;;;;;;;;;;5014120;28;20025;-74
2022/05/29 12:03:46;;;;;;;17.73;3.10;;;;;;;;;;4995946;28;20026;-73
2022/05/29 12:06:14;;;;;;;18.77;4.47;;;;;;;;;;5012463;28;20030;-73
2022/05/29 12:08:47;;;;;;;19.52;3.45;;;;;;;;;;5019963;28;20040;-74
2022/05/29 12:11:16;;;;;;;17.40;4.38;;;;;;;;;;5002821;28;20026;-74
2022/05/29 12:13:50;;;;;;;20.05;4.43;;;;;;;;;;5016418;28;20022;-73
2022/05/29 12:16:16;;;;;;;13.95;3.10;;;;;;;;;;5015702;28;20133;-75
2022/05/29 12:18:47;;;;;;;27.63;5.88;;;;;;;;;;5017587;28;20026;-72
2022/05/29 12:21:15;;;;;;;23.33;9.13;;;;;;;;;;5000650;28;20022;-72
2022/05/29 12:23:44;;;;;;;22.92;4.30;;;;;;;;;;5018468;28;20041;-72
2022/05/29 12:26:16;;;;;;;17.80;3.20;;;;;;;;;;5021383;28;20033;-72
2022/05/29 12:28:45;;;;;;;19.95;3.20;;;;;;;;;;4997667;28;20483;-73
2022/05/29 12:31:18;;;;;;;20.83;4.15;;;;;;;;;;4999823;28;20135;-73
2022/05/29 12:33:45;;;;;;;21.75;3.75;;;;;;;;;;5002052;28;20018;-72
2022/05/29 12:36:34;;;;;;;15.70;3.03;;;;;;;;;;5001648;28;20034;-73
2022/05/29 12:39:06;;;;;;;22.60;4.90;;;;;;;;;;5003878;28;20104;-73
2022/05/29 12:41:43;;;;;;;16.88;3.20;;;;;;;;;;5003047;28;20078;-71
2022/05/29 12:44:18;;;;;;;15.98;2.88;;;;;;;;;;5004071;28;20026;-73
2022/05/29 12:46:50;;;;;;;18.75;3.53;;;;;;;;;;4986077;28;20045;-74
2022/05/29 12:49:19;;;;;;;21.65;4.45;;;;;;;;;;5006209;28;20026;-74
2022/05/29 12:51:56;;;;;;;16.80;3.80;;;;;;;;;;5007269;28;20041;-74
2022/05/29 12:54:30;;;;;;;16.75;3.38;;;;;;;;;;4999406;28;20125;-73
2022/05/29 12:57:14;;;;;;;20.25;3.67;;;;;;;;;;4997103;28;20031;-73
2022/05/29 12:59:49;;;;;;;15.85;3.22;;;;;;;;;;4997363;28;20121;-74
2022/05/29 13:02:22;;;;;;;17.23;3.28;;;;;;;;;;5001217;28;20032;-73
2022/05/29 13:04:51;;;;;;;17.42;3.67;;;;;;;;;;5004227;28;20027;-73
2022/05/29 13:07:24;;;;;;;17.95;4.43;;;;;;;;;;4988061;28;20030;-73
2022/05/29 13:10:09;;;;;;;16.42;3.40;;;;;;;;;;5002910;28;20038;-72
2022/05/29 13:12:58;;;;;;;14.40;3.20;;;;;;;;;;5002136;28;20105;-72
2022/05/29 13:15:34;;;;;;;18.73;3.60;;;;;;;;;;5005610;28;20054;-73
2022/05/29 13:18:03;;;;;;;15.05;3.38;;;;;;;;;;5009814;28;20030;-73
2022/05/29 13:20:29;;;;;;;14.90;3.33;;;;;;;;;;5009948;28;20109;-72
2022/05/29 13:22:56;;;;;;;15.30;3.58;;;;;;;;;;5008177;28;20030;-74
2022/05/29 13:25:27;;;;;;;18.40;4.03;;;;;;;;;;5008052;28;20091;-73
2022/05/29 13:27:53;;;;;;;24.50;3.50;;;;;;;;;;5007751;28;20419;-73
2022/05/29 13:30:34;;;;;;;20.20;4.72;;;;;;;;;;5007706;28;20527;-73
2022/05/29 13:33:29;;;;;;;18.90;3.13;;;;;;;;;;4985657;28;20023;-73
2022/05/29 13:35:55;;;;;;;;;;;;;;;;;;4937457;28;20116;-72
2022/05/29 13:38:40;;;;;;;16.13;3.28;;;;;;;;;;5005167;28;19909;-72
2022/05/29 13:41:07;;;;;;;20.25;2.75;;;;;;;;;;5003213;28;20022;-72
2022/05/29 13:43:32;;;;;;;15.18;4.57;;;;;;;;;;4986596;28;20029;-71
2022/05/29 13:46:06;;;;;;;21.38;5.53;;;;;;;;;;5003781;28;20026;-71
2022/05/29 13:48:32;;;;;;;30.73;11.80;;;;;;;;;;5006107;28;20026;-72
2022/05/29 13:50:58;;;;;;;21.20;6.20;;;;;;;;;;5004513;28;20034;-72
2022/05/29 13:53:30;;;;;;;21.48;5.75;;;;;;;;;;5007020;28;20034;-72
2022/05/29 13:55:58;;;;;;;13.02;2.53;;;;;;;;;;5001836;28;20097;-73
2022/05/29 14:04:02;;;;;;;17.63;4.13;;;;;;;;;;5003276;28;20540;-73
2022/05/29 14:06:41;;;;;;;16.05;3.33;;;;;;;;;;5002552;28;20018;-73
2022/05/29 14:09:27;;;;;;;10.85;2.58;;;;;;;;;;5003601;28;20030;-72
2022/05/29 14:11:55;;;;;;;15.15;2.72;;;;;;;;;;4990528;28;20049;-72
2022/05/29 14:14:34;;;;;;;7.25;2.00;;;;;;;;;;5003236;28;20108;-72
2022/05/29 14:17:19;;;;;;;12.65;2.28;;;;;;;;;;5001159;28;20112;-72
2022/05/29 14:19:44;;;;;;;;;;;;;;;;;;5003340;28;20034;-72
2022/05/29 14:22:17;;;;;;;9.45;2.38;;;;;;;;;;5001102;28;19913;-72
2022/05/29 14:24:43;;;;;;;10.85;2.92;;;;;;;;;;5003350;28;20026;-72
2022/05/29 14:27:27;;;;;;;11.63;2.50;;;;;;;;;;5004769;28;20026;-73
2022/05/29 14:30:05;;;;;;;14.80;3.20;;;;;;;;;;5003020;28;20030;-75
2022/05/29 14:32:31;;;;;;;16.77;3.03;;;;;;;;;;5003563;28;20023;-72
2022/05/29 14:34:57;;;;;;;22.92;8.05;;;;;;;;;;5004970;28;20061;-72
2022/05/29 14:37:26;;;;;;;14.40;2.58;;;;;;;;;;5006223;28;20085;-74
2022/05/29 14:40:04;;;;;;;11.15;2.22;;;;;;;;;;5000724;28;20026;-73
2022/05/29 14:42:39;;;;;;;11.43;2.22;;;;;;;;;;5005049;28;20042;-74
2022/05/29 14:45:15;;;;;;;12.85;2.70;;;;;;;;;;4989236;28;20444;-72
2022/05/29 14:47:44;;;;;;;17.20;2.85;;;;;;;;;;5004750;28;20052;-72
2022/05/29 14:50:40;;;;;;;19.80;3.78;;;;;;;;;;5008356;28;20117;-71
2022/05/29 14:53:15;;;;;;;15.38;3.17;;;;;;;;;;4984458;28;20038;-71
2022/05/29 14:55:41;;;;;;;20.42;3.97;;;;;;;;;;5004105;28;20029;-72
2022/05/29 14:58:07;;;;;;;17.80;3.20;;;;;;;;;;5000750;28;20466;-73
2022/05/29 15:00:39;;;;;;;14.70;3.33;;;;;;;;;;4982359;28;20027;-73
2022/05/29 15:03:11;;;;;;;14.80;3.30;;;;;;;;;;4999211;28;20024;-72
2022/05/29 15:05:38;;;;;;;25.38;9.60;;;;;;;;;;5000551;28;21021;-74
2022/05/29 15:10:59;;;;;;;15.02;2.95;;;;;;;;;;5004597;28;20085;-72
2022/05/29 15:13:28;;;;;;;18.85;3.50;;;;;;;;;;5001524;28;20061;-72
2022/05/29 15:15:55;;;;;;;16.55;3.15;;;;;;;;;;4998561;28;20054;-72
2022/05/29 15:18:24;;;;;;;20.88;3.28;;;;;;;;;;4980083;28;20522;-72
2022/05/29 15:26:57;;;;;;;21.10;4.18;;;;;;;;;;4920173;29;20039;-71
2022/05/29 15:29:31;;;;;;;24.55;4.47;;;;;;;;;;4964018;28;20038;-73
2022/05/29 15:32:06;;;;;;;27.83;5.10;;;;;;;;;;4976909;28;20472;-75
2022/05/29 15:34:40;;;;;;;27.45;5.15;;;;;;;;;;4994861;28;20073;-73
2022/05/29 15:37:15;;;;;;;23.35;5.93;;;;;;;;;;4980166;28;20034;-72
2022/05/29 15:39:46;;;;;;;19.60;3.40;;;;;;;;;;5000702;28;20065;-73